sensor_id;sensor_type;location;lat;lon;timestamp;P1;durP1;ratioP1;P2;durP2;ratioP2
38037;SDS011;23843;51.320;12.340;2023-03-31T04:32:38;1.37;;;0.60;;
38037;SDS011;23843;51.320;12.340;2023-03-31T04:35:04;1.13;;;0.50;;
38037;SDS011;23843;51.320;12.340;2023-03-31T04:37:30;0.97;;;0.60;;
38037;SDS011;23843;51.320;12.340;2023-03-31T04:39:55;1.90;;;0.67;;
38037;SDS011;23843;51.320;12.340;2023-03-31T04:42:21;1.87;;;0.73;;
38037;SDS011;23843;51.320;12.340;2023-03-31T04:44:46;0.97;;;0.60;;
38037;SDS011;23843;51.320;12.340;2023-03-31T04:47:11;2.70;;;0.70;;
38037;SDS011;23843;51.320;12.340;2023-03-31T04:49:38;0.60;;;0.47;;
38037;SDS011;23843;51.320;12.340;2023-03-31T04:52:04;0.70;;;0.40;;
38037;SDS011;23843;51.320;12.340;2023-03-31T04:54:29;0.90;;;0.50;;
38037;SDS011;23843;51.320;12.340;2023-03-31T04:56:55;0.70;;;0.30;;
38037;SDS011;23843;51.320;12.340;2023-03-31T04:59:20;1.03;;;0.50;;
38037;SDS011;23843;51.320;12.340;2023-03-31T05:01:46;1.70;;;0.40;;
38037;SDS011;23843;51.320;12.340;2023-03-31T05:04:11;0.50;;;0.20;;
38037;SDS011;23843;51.320;12.340;2023-03-31T05:06:38;0.50;;;0.40;;
38037;SDS011;23843;51.320;12.340;2023-03-31T05:09:03;0.40;;;0.40;;
38037;SDS011;23843;51.320;12.340;2023-03-31T05:11:29;0.50;;;0.43;;
38037;SDS011;23843;51.320;12.340;2023-03-31T05:13:55;0.50;;;0.40;;
38037;SDS011;23843;51.320;12.340;2023-03-31T05:16:21;0.60;;;0.40;;
38037;SDS011;23843;51.320;12.340;2023-03-31T05:18:46;0.47;;;0.30;;
38037;SDS011;23843;51.320;12.340;2023-03-31T05:21:12;0.43;;;0.43;;
38037;SDS011;23843;51.320;12.340;2023-03-31T05:23:41;0.77;;;0.50;;
38037;SDS011;23843;51.320;12.340;2023-03-31T05:26:07;0.30;;;0.20;;
38037;SDS011;23843;51.320;12.340;2023-03-31T05:28:33;0.50;;;0.27;;
38037;SDS011;23843;51.320;12.340;2023-03-31T05:30:58;0.40;;;0.40;;
38037;SDS011;23843;51.320;12.340;2023-03-31T05:33:24;0.73;;;0.40;;
38037;SDS011;23843;51.320;12.340;2023-03-31T05:35:49;0.50;;;0.30;;
38037;SDS011;23843;51.320;12.340;2023-03-31T05:38:15;1.40;;;0.60;;
38037;SDS011;23843;51.320;12.340;2023-03-31T05:40:42;0.87;;;0.40;;
38037;SDS011;23843;51.320;12.340;2023-03-31T05:43:07;1.20;;;0.60;;
38037;SDS011;23843;51.320;12.340;2023-03-31T05:45:33;1.73;;;0.60;;
38037;SDS011;23843;51.320;12.340;2023-03-31T05:47:58;1.00;;;0.57;;
38037;SDS011;23843;51.320;12.340;2023-03-31T05:50:23;1.00;;;0.40;;
38037;SDS011;23843;51.320;12.340;2023-03-31T05:52:49;0.60;;;0.50;;
38037;SDS011;23843;51.320;12.340;2023-03-31T05:55:14;1.13;;;0.50;;
38037;SDS011;23843;51.320;12.340;2023-03-31T05:57:41;1.00;;;0.60;;
38037;SDS011;23843;51.320;12.340;2023-03-31T06:00:07;0.93;;;0.50;;
38037;SDS011;23843;51.320;12.340;2023-03-31T06:02:34;1.13;;;0.70;;
38037;SDS011;23843;51.320;12.340;2023-03-31T06:04:59;1.97;;;0.97;;
38037;SDS011;23843;51.320;12.340;2023-03-31T06:07:25;1.80;;;0.80;;
38037;SDS011;23843;51.320;12.340;2023-03-31T06:09:50;1.23;;;0.50;;
38037;SDS011;23843;51.320;12.340;2023-03-31T06:12:16;1.87;;;0.90;;
38037;SDS011;23843;51.320;12.340;2023-03-31T06:14:42;1.00;;;0.67;;
38037;SDS011;23843;51.320;12.340;2023-03-31T06:17:08;0.70;;;0.60;;
38037;SDS011;23843;51.320;12.340;2023-03-31T06:19:33;2.10;;;0.77;;
38037;SDS011;23843;51.320;12.340;2023-03-31T06:21:59;1.60;;;0.80;;
38037;SDS011;23843;51.320;12.340;2023-03-31T06:24:24;1.10;;;0.70;;
38037;SDS011;23843;51.320;12.340;2023-03-31T06:26:50;1.50;;;0.80;;
38037;SDS011;23843;51.320;12.340;2023-03-31T06:29:15;0.80;;;0.50;;
38037;SDS011;23843;51.320;12.340;2023-03-31T06:31:42;1.47;;;0.60;;
38037;SDS011;23843;51.320;12.340;2023-03-31T06:34:07;2.37;;;0.90;;
38037;SDS011;23843;51.320;12.340;2023-03-31T06:36:33;1.00;;;0.60;;
38037;SDS011;23843;51.320;12.340;2023-03-31T06:38:58;1.60;;;1.10;;
38037;SDS011;23843;51.320;12.340;2023-03-31T06:41:24;2.13;;;1.10;;
38037;SDS011;23843;51.320;12.340;2023-03-31T06:43:49;1.43;;;0.97;;
38037;SDS011;23843;51.320;12.340;2023-03-31T06:46:15;1.97;;;1.10;;
38037;SDS011;23843;51.320;12.340;2023-03-31T06:48:41;1.47;;;0.77;;
38037;SDS011;23843;51.320;12.340;2023-03-31T06:51:07;0.80;;;0.60;;
38037;SDS011;23843;51.320;12.340;2023-03-31T06:53:33;1.73;;;0.90;;
38037;SDS011;23843;51.320;12.340;2023-03-31T06:55:59;1.67;;;0.90;;
38037;SDS011;23843;51.320;12.340;2023-03-31T06:58:24;1.37;;;0.77;;
38037;SDS011;23843;51.320;12.340;2023-03-31T07:00:50;1.80;;;1.10;;
38037;SDS011;23843;51.320;12.340;2023-03-31T07:03:16;1.60;;;0.83;;
38037;SDS011;23843;51.320;12.340;2023-03-31T07:05:42;0.97;;;0.63;;
38037;SDS011;23843;51.320;12.340;2023-03-31T07:08:13;0.50;;;0.50;;
38037;SDS011;23843;51.320;12.340;2023-03-31T07:10:38;1.43;;;0.70;;
38037;SDS011;23843;51.320;12.340;2023-03-31T07:13:03;0.77;;;0.50;;
38037;SDS011;23843;51.320;12.340;2023-03-31T07:15:29;1.10;;;0.80;;
38037;SDS011;23843;51.320;12.340;2023-03-31T07:17:55;1.07;;;0.77;;
38037;SDS011;23843;51.320;12.340;2023-03-31T07:20:20;1.30;;;0.70;;
38037;SDS011;23843;51.320;12.340;2023-03-31T07:22:47;1.30;;;0.67;;
38037;SDS011;23843;51.320;12.340;2023-03-31T07:25:13;1.60;;;0.70;;
38037;SDS011;23843;51.320;12.340;2023-03-31T07:27:41;0.40;;;0.40;;
38037;SDS011;23843;51.320;12.340;2023-03-31T07:30:07;1.60;;;0.60;;
38037;SDS011;23843;51.320;12.340;2023-03-31T07:32:34;0.63;;;0.43;;
38037;SDS011;23843;51.320;12.340;2023-03-31T07:35:00;0.60;;;0.40;;
38037;SDS011;23843;51.320;12.340;2023-03-31T07:37:25;0.40;;;0.40;;
38037;SDS011;23843;51.320;12.340;2023-03-31T07:39:52;1.07;;;0.47;;
38037;SDS011;23843;51.320;12.340;2023-03-31T07:42:18;0.67;;;0.60;;
38037;SDS011;23843;51.320;12.340;2023-03-31T07:44:43;1.13;;;0.60;;
38037;SDS011;23843;51.320;12.340;2023-03-31T07:47:09;0.70;;;0.50;;
38037;SDS011;23843;51.320;12.340;2023-03-31T07:49:34;1.60;;;0.80;;
38037;SDS011;23843;51.320;12.340;2023-03-31T07:52:00;1.77;;;1.37;;
38037;SDS011;23843;51.320;12.340;2023-03-31T07:54:26;4.60;;;2.30;;
38037;SDS011;23843;51.320;12.340;2023-03-31T07:56:53;3.03;;;2.20;;
38037;SDS011;23843;51.320;12.340;2023-03-31T07:59:19;2.67;;;1.60;;
38037;SDS011;23843;51.320;12.340;2023-03-31T08:01:44;3.43;;;1.20;;
38037;SDS011;23843;51.320;12.340;2023-03-31T08:04:10;2.10;;;0.87;;
38037;SDS011;23843;51.320;12.340;2023-03-31T08:06:36;1.90;;;1.00;;
38037;SDS011;23843;51.320;12.340;2023-03-31T08:09:03;1.53;;;0.90;;
38037;SDS011;23843;51.320;12.340;2023-03-31T08:11:29;1.50;;;0.80;;
38037;SDS011;23843;51.320;12.340;2023-03-31T08:13:56;1.67;;;0.90;;
38037;SDS011;23843;51.320;12.340;2023-03-31T08:16:21;2.17;;;1.10;;
38037;SDS011;23843;51.320;12.340;2023-03-31T08:18:47;1.83;;;0.80;;
38037;SDS011;23843;51.320;12.340;2023-03-31T08:21:12;0.73;;;0.70;;
38037;SDS011;23843;51.320;12.340;2023-03-31T08:23:38;2.30;;;1.00;;
38037;SDS011;23843;51.320;12.340;2023-03-31T08:26:07;2.87;;;1.00;;
38037;SDS011;23843;51.320;12.340;2023-03-31T08:28:35;2.20;;;0.93;;
38037;SDS011;23843;51.320;12.340;2023-03-31T08:31:03;1.67;;;0.90;;
38037;SDS011;23843;51.320;12.340;2023-03-31T08:33:29;1.47;;;0.90;;
38037;SDS011;23843;51.320;12.340;2023-03-31T08:35:54;1.43;;;0.97;;
38037;SDS011;23843;51.320;12.340;2023-03-31T08:38:20;1.00;;;0.73;;
38037;SDS011;23843;51.320;12.340;2023-03-31T08:40:45;1.63;;;0.80;;
38037;SDS011;23843;51.320;12.340;2023-03-31T08:43:11;1.30;;;0.80;;
38037;SDS011;23843;51.320;12.340;2023-03-31T08:45:47;1.90;;;0.77;;
38037;SDS011;23843;51.320;12.340;2023-03-31T08:48:17;1.40;;;1.00;;
38037;SDS011;23843;51.320;12.340;2023-03-31T08:50:49;1.27;;;1.00;;
38037;SDS011;23843;51.320;12.340;2023-03-31T08:53:19;1.90;;;1.03;;
38037;SDS011;23843;51.320;12.340;2023-03-31T08:55:50;0.90;;;0.60;;
38037;SDS011;23843;51.320;12.340;2023-03-31T08:58:23;2.37;;;0.90;;
38037;SDS011;23843;51.320;12.340;2023-03-31T09:00:58;1.07;;;0.60;;
38037;SDS011;23843;51.320;12.340;2023-03-31T09:03:33;0.97;;;0.53;;
38037;SDS011;23843;51.320;12.340;2023-03-31T09:06:07;1.13;;;0.63;;
38037;SDS011;23843;51.320;12.340;2023-03-31T09:08:38;1.73;;;0.60;;
38037;SDS011;23843;51.320;12.340;2023-03-31T09:11:10;0.97;;;0.67;;
38037;SDS011;23843;51.320;12.340;2023-03-31T09:16:31;0.97;;;0.60;;
38037;SDS011;23843;51.320;12.340;2023-03-31T09:19:01;1.17;;;0.80;;
38037;SDS011;23843;51.320;12.340;2023-03-31T09:21:27;2.07;;;0.80;;
38037;SDS011;23843;51.320;12.340;2023-03-31T09:23:57;1.03;;;0.60;;
38037;SDS011;23843;51.320;12.340;2023-03-31T09:26:29;0.80;;;0.60;;
38037;SDS011;23843;51.320;12.340;2023-03-31T09:29:00;1.10;;;0.57;;
38037;SDS011;23843;51.320;12.340;2023-03-31T09:31:29;1.07;;;0.63;;
38037;SDS011;23843;51.320;12.340;2023-03-31T09:33:57;2.27;;;0.77;;
38037;SDS011;23843;51.320;12.340;2023-03-31T09:36:26;1.10;;;0.60;;
38037;SDS011;23843;51.320;12.340;2023-03-31T09:38:52;0.73;;;0.60;;
38037;SDS011;23843;51.320;12.340;2023-03-31T09:41:17;0.90;;;0.60;;
38037;SDS011;23843;51.320;12.340;2023-03-31T09:43:43;1.03;;;0.90;;
38037;SDS011;23843;51.320;12.340;2023-03-31T09:46:14;1.57;;;0.80;;
38037;SDS011;23843;51.320;12.340;2023-03-31T09:48:42;0.93;;;0.80;;
38037;SDS011;23843;51.320;12.340;2023-03-31T09:51:17;1.37;;;0.77;;
38037;SDS011;23843;51.320;12.340;2023-03-31T09:53:49;1.80;;;0.80;;
38037;SDS011;23843;51.320;12.340;2023-03-31T09:59:20;2.20;;;0.97;;
38037;SDS011;23843;51.320;12.340;2023-03-31T10:01:48;1.37;;;0.90;;
38037;SDS011;23843;51.320;12.340;2023-03-31T10:04:17;1.40;;;0.63;;
38037;SDS011;23843;51.320;12.340;2023-03-31T10:06:46;0.90;;;0.60;;
38037;SDS011;23843;51.320;12.340;2023-03-31T10:09:13;0.80;;;0.60;;
38037;SDS011;23843;51.320;12.340;2023-03-31T10:11:39;1.40;;;0.67;;
38037;SDS011;23843;51.320;12.340;2023-03-31T10:14:17;1.50;;;0.80;;
38037;SDS011;23843;51.320;12.340;2023-03-31T10:16:50;0.77;;;0.53;;
38037;SDS011;23843;51.320;12.340;2023-03-31T10:19:19;0.80;;;0.60;;
38037;SDS011;23843;51.320;12.340;2023-03-31T10:21:47;0.90;;;0.70;;
38037;SDS011;23843;51.320;12.340;2023-03-31T10:24:20;1.60;;;0.70;;
38037;SDS011;23843;51.320;12.340;2023-03-31T10:26:46;2.30;;;0.70;;
38037;SDS011;23843;51.320;12.340;2023-03-31T10:29:14;0.97;;;0.60;;
38037;SDS011;23843;51.320;12.340;2023-03-31T10:31:46;0.70;;;0.50;;
38037;SDS011;23843;51.320;12.340;2023-03-31T10:34:13;0.70;;;0.50;;
38037;SDS011;23843;51.320;12.340;2023-03-31T10:36:44;0.80;;;0.40;;
38037;SDS011;23843;51.320;12.340;2023-03-31T10:39:11;0.40;;;0.40;;
38037;SDS011;23843;51.320;12.340;2023-03-31T10:41:41;0.50;;;0.30;;
38037;SDS011;23843;51.320;12.340;2023-03-31T10:44:22;0.60;;;0.50;;
38037;SDS011;23843;51.320;12.340;2023-03-31T10:46:55;0.90;;;0.50;;
38037;SDS011;23843;51.320;12.340;2023-03-31T10:49:29;0.40;;;0.37;;
38037;SDS011;23843;51.320;12.340;2023-03-31T10:52:02;1.60;;;0.80;;
38037;SDS011;23843;51.320;12.340;2023-03-31T10:54:28;1.70;;;0.93;;
38037;SDS011;23843;51.320;12.340;2023-03-31T10:56:55;0.50;;;0.50;;
38037;SDS011;23843;51.320;12.340;2023-03-31T10:59:27;1.43;;;0.70;;
38037;SDS011;23843;51.320;12.340;2023-03-31T11:02:12;0.57;;;0.50;;
38037;SDS011;23843;51.320;12.340;2023-03-31T11:04:54;1.03;;;0.57;;
38037;SDS011;23843;51.320;12.340;2023-03-31T11:07:34;0.47;;;0.47;;
38037;SDS011;23843;51.320;12.340;2023-03-31T11:10:18;1.77;;;0.70;;
38037;SDS011;23843;51.320;12.340;2023-03-31T11:12:56;1.00;;;0.70;;
38037;SDS011;23843;51.320;12.340;2023-03-31T11:15:29;2.13;;;0.67;;
38037;SDS011;23843;51.320;12.340;2023-03-31T11:18:07;1.50;;;0.70;;
38037;SDS011;23843;51.320;12.340;2023-03-31T11:20:46;1.03;;;0.63;;
38037;SDS011;23843;51.320;12.340;2023-03-31T11:23:21;0.50;;;0.47;;
38037;SDS011;23843;51.320;12.340;2023-03-31T11:25:57;0.40;;;0.40;;
38037;SDS011;23843;51.320;12.340;2023-03-31T11:28:31;1.17;;;0.80;;
38037;SDS011;23843;51.320;12.340;2023-03-31T11:31:13;1.03;;;0.93;;
38037;SDS011;23843;51.320;12.340;2023-03-31T11:33:52;0.90;;;0.60;;
38037;SDS011;23843;51.320;12.340;2023-03-31T11:36:31;1.33;;;0.60;;
38037;SDS011;23843;51.320;12.340;2023-03-31T11:39:13;1.33;;;0.80;;
38037;SDS011;23843;51.320;12.340;2023-03-31T11:41:50;1.40;;;0.83;;
38037;SDS011;23843;51.320;12.340;2023-03-31T11:44:21;2.20;;;0.60;;
38037;SDS011;23843;51.320;12.340;2023-03-31T11:46:57;0.90;;;0.70;;
38037;SDS011;23843;51.320;12.340;2023-03-31T11:49:26;1.07;;;0.67;;
38037;SDS011;23843;51.320;12.340;2023-03-31T11:51:54;1.70;;;0.80;;
38037;SDS011;23843;51.320;12.340;2023-03-31T11:54:26;1.00;;;0.70;;
38037;SDS011;23843;51.320;12.340;2023-03-31T11:59:26;1.27;;;0.97;;
38037;SDS011;23843;51.320;12.340;2023-03-31T12:01:55;0.83;;;0.60;;
38037;SDS011;23843;51.320;12.340;2023-03-31T12:04:31;0.97;;;0.67;;
38037;SDS011;23843;51.320;12.340;2023-03-31T12:07:00;0.77;;;0.77;;
38037;SDS011;23843;51.320;12.340;2023-03-31T12:09:33;1.20;;;0.80;;
38037;SDS011;23843;51.320;12.340;2023-03-31T12:12:05;0.67;;;0.63;;
38037;SDS011;23843;51.320;12.340;2023-03-31T12:14:38;1.80;;;1.57;;
38037;SDS011;23843;51.320;12.340;2023-03-31T12:17:09;2.77;;;1.80;;
38037;SDS011;23843;51.320;12.340;2023-03-31T12:19:38;1.80;;;1.20;;
38037;SDS011;23843;51.320;12.340;2023-03-31T12:22:11;1.03;;;0.90;;
38037;SDS011;23843;51.320;12.340;2023-03-31T12:24:41;1.00;;;0.73;;
38037;SDS011;23843;51.320;12.340;2023-03-31T12:27:09;1.00;;;0.70;;
38037;SDS011;23843;51.320;12.340;2023-03-31T12:29:40;0.57;;;0.43;;
38037;SDS011;23843;51.320;12.340;2023-03-31T12:32:10;0.87;;;0.50;;
38037;SDS011;23843;51.320;12.340;2023-03-31T12:34:41;0.80;;;0.57;;
38037;SDS011;23843;51.320;12.340;2023-03-31T12:37:21;0.40;;;0.40;;
38037;SDS011;23843;51.320;12.340;2023-03-31T12:40:00;1.20;;;0.40;;
38037;SDS011;23843;51.320;12.340;2023-03-31T12:45:26;0.60;;;0.57;;
38037;SDS011;23843;51.320;12.340;2023-03-31T12:50:52;0.40;;;0.30;;
38037;SDS011;23843;51.320;12.340;2023-03-31T12:53:38;0.30;;;0.30;;
38037;SDS011;23843;51.320;12.340;2023-03-31T12:56:19;0.30;;;0.30;;
38037;SDS011;23843;51.320;12.340;2023-03-31T12:58:45;0.57;;;0.57;;
38037;SDS011;23843;51.320;12.340;2023-03-31T13:01:16;0.97;;;0.87;;
38037;SDS011;23843;51.320;12.340;2023-03-31T13:03:50;0.50;;;0.50;;
38037;SDS011;23843;51.320;12.340;2023-03-31T13:12:05;0.60;;;0.60;;
38037;SDS011;23843;51.320;12.340;2023-03-31T13:14:35;0.80;;;0.70;;
38037;SDS011;23843;51.320;12.340;2023-03-31T13:17:11;0.80;;;0.80;;
38037;SDS011;23843;51.320;12.340;2023-03-31T13:19:48;0.73;;;0.60;;
38037;SDS011;23843;51.320;12.340;2023-03-31T13:22:26;1.30;;;1.20;;
38037;SDS011;23843;51.320;12.340;2023-03-31T13:24:55;1.00;;;0.73;;
38037;SDS011;23843;51.320;12.340;2023-03-31T13:30:51;1.00;;;0.70;;
38037;SDS011;23843;51.320;12.340;2023-03-31T13:33:20;1.00;;;0.60;;
38037;SDS011;23843;51.320;12.340;2023-03-31T13:35:52;0.80;;;0.60;;
38037;SDS011;23843;51.320;12.340;2023-03-31T13:38:34;0.93;;;0.60;;
38037;SDS011;23843;51.320;12.340;2023-03-31T13:44:14;1.43;;;0.60;;
38037;SDS011;23843;51.320;12.340;2023-03-31T13:49:55;0.80;;;0.80;;
38037;SDS011;23843;51.320;12.340;2023-03-31T13:52:38;0.67;;;0.57;;
38037;SDS011;23843;51.320;12.340;2023-03-31T13:55:27;1.80;;;0.90;;
38037;SDS011;23843;51.320;12.340;2023-03-31T14:04:04;0.80;;;0.80;;
38037;SDS011;23843;51.320;12.340;2023-03-31T14:06:43;1.07;;;0.80;;
38037;SDS011;23843;51.320;12.340;2023-03-31T14:09:15;1.57;;;0.80;;
38037;SDS011;23843;51.320;12.340;2023-03-31T14:11:48;0.63;;;0.60;;
38037;SDS011;23843;51.320;12.340;2023-03-31T14:14:14;0.80;;;0.67;;
38037;SDS011;23843;51.320;12.340;2023-03-31T14:16:43;0.60;;;0.50;;
38037;SDS011;23843;51.320;12.340;2023-03-31T14:19:20;0.60;;;0.60;;
38037;SDS011;23843;51.320;12.340;2023-03-31T14:22:01;1.73;;;0.70;;
38037;SDS011;23843;51.320;12.340;2023-03-31T14:24:35;0.73;;;0.73;;
38037;SDS011;23843;51.320;12.340;2023-03-31T14:27:05;0.70;;;0.67;;
38037;SDS011;23843;51.320;12.340;2023-03-31T14:29:45;0.47;;;0.40;;
38037;SDS011;23843;51.320;12.340;2023-03-31T14:32:21;0.37;;;0.30;;
38037;SDS011;23843;51.320;12.340;2023-03-31T14:34:55;0.20;;;0.20;;
38037;SDS011;23843;51.320;12.340;2023-03-31T14:37:44;0.77;;;0.60;;
38037;SDS011;23843;51.320;12.340;2023-03-31T14:40:11;1.90;;;1.13;;
38037;SDS011;23843;51.320;12.340;2023-03-31T14:42:42;1.37;;;0.80;;
38037;SDS011;23843;51.320;12.340;2023-03-31T14:45:14;2.10;;;0.50;;
38037;SDS011;23843;51.320;12.340;2023-03-31T14:47:41;0.30;;;0.30;;
38037;SDS011;23843;51.320;12.340;2023-03-31T14:50:17;0.30;;;0.30;;
38037;SDS011;23843;51.320;12.340;2023-03-31T14:52:46;0.50;;;0.27;;
38037;SDS011;23843;51.320;12.340;2023-03-31T14:55:13;0.20;;;0.20;;
38037;SDS011;23843;51.320;12.340;2023-03-31T14:57:57;0.60;;;0.40;;
38037;SDS011;23843;51.320;12.340;2023-03-31T15:00:26;1.43;;;0.60;;
38037;SDS011;23843;51.320;12.340;2023-03-31T15:02:54;0.60;;;0.47;;
38037;SDS011;23843;51.320;12.340;2023-03-31T15:05:24;0.40;;;0.40;;
38037;SDS011;23843;51.320;12.340;2023-03-31T15:07:56;0.50;;;0.30;;
38037;SDS011;23843;51.320;12.340;2023-03-31T15:10:22;0.40;;;0.40;;
38037;SDS011;23843;51.320;12.340;2023-03-31T15:12:48;0.80;;;0.40;;
38037;SDS011;23843;51.320;12.340;2023-03-31T15:15:14;0.20;;;0.20;;
38037;SDS011;23843;51.320;12.340;2023-03-31T15:17:42;0.30;;;0.30;;
38037;SDS011;23843;51.320;12.340;2023-03-31T15:20:20;0.30;;;0.30;;
38037;SDS011;23843;51.320;12.340;2023-03-31T15:22:50;0.60;;;0.33;;
38037;SDS011;23843;51.320;12.340;2023-03-31T15:25:17;0.47;;;0.40;;
38037;SDS011;23843;51.320;12.340;2023-03-31T15:27:43;2.10;;;1.20;;
38037;SDS011;23843;51.320;12.340;2023-03-31T15:30:13;0.63;;;0.60;;
38037;SDS011;23843;51.320;12.340;2023-03-31T15:32:43;0.80;;;0.70;;
38037;SDS011;23843;51.320;12.340;2023-03-31T15:35:15;0.70;;;0.57;;
38037;SDS011;23843;51.320;12.340;2023-03-31T15:37:46;0.77;;;0.60;;
38037;SDS011;23843;51.320;12.340;2023-03-31T15:40:16;1.23;;;1.07;;
38037;SDS011;23843;51.320;12.340;2023-03-31T15:42:45;0.33;;;0.30;;
38037;SDS011;23843;51.320;12.340;2023-03-31T15:45:24;0.60;;;0.53;;
38037;SDS011;23843;51.320;12.340;2023-03-31T15:48:02;1.43;;;0.60;;
38037;SDS011;23843;51.320;12.340;2023-03-31T15:50:28;1.33;;;0.50;;
38037;SDS011;23843;51.320;12.340;2023-03-31T15:52:54;0.60;;;0.50;;
38037;SDS011;23843;51.320;12.340;2023-03-31T15:55:26;0.60;;;0.30;;
38037;SDS011;23843;51.320;12.340;2023-03-31T15:57:53;0.53;;;0.40;;
38037;SDS011;23843;51.320;12.340;2023-03-31T16:03:11;0.47;;;0.40;;
38037;SDS011;23843;51.320;12.340;2023-03-31T16:05:41;0.30;;;0.30;;
38037;SDS011;23843;51.320;12.340;2023-03-31T16:08:14;0.83;;;0.60;;
38037;SDS011;23843;51.320;12.340;2023-03-31T16:10:43;1.17;;;0.50;;
38037;SDS011;23843;51.320;12.340;2023-03-31T16:13:09;0.70;;;0.40;;
38037;SDS011;23843;51.320;12.340;2023-03-31T16:15:41;1.03;;;0.43;;
38037;SDS011;23843;51.320;12.340;2023-03-31T16:18:13;1.50;;;1.40;;
38037;SDS011;23843;51.320;12.340;2023-03-31T16:20:40;2.20;;;1.40;;
38037;SDS011;23843;51.320;12.340;2023-03-31T16:23:17;1.10;;;1.00;;
38037;SDS011;23843;51.320;12.340;2023-03-31T16:25:49;1.00;;;0.70;;
38037;SDS011;23843;51.320;12.340;2023-03-31T16:28:16;0.67;;;0.57;;
38037;SDS011;23843;51.320;12.340;2023-03-31T16:30:44;1.03;;;1.00;;
38037;SDS011;23843;51.320;12.340;2023-03-31T16:33:11;0.67;;;0.50;;
38037;SDS011;23843;51.320;12.340;2023-03-31T16:35:38;1.17;;;0.80;;
38037;SDS011;23843;51.320;12.340;2023-03-31T16:38:06;1.20;;;0.60;;
38037;SDS011;23843;51.320;12.340;2023-03-31T16:40:34;1.40;;;0.60;;
38037;SDS011;23843;51.320;12.340;2023-03-31T16:43:10;0.50;;;0.50;;
38037;SDS011;23843;51.320;12.340;2023-03-31T16:45:37;0.70;;;0.60;;
38037;SDS011;23843;51.320;12.340;2023-03-31T16:48:06;0.93;;;0.50;;
38037;SDS011;23843;51.320;12.340;2023-03-31T16:50:31;0.40;;;0.40;;
38037;SDS011;23843;51.320;12.340;2023-03-31T16:52:57;0.60;;;0.40;;
38037;SDS011;23843;51.320;12.340;2023-03-31T16:55:22;0.20;;;0.20;;
38037;SDS011;23843;51.320;12.340;2023-03-31T16:57:48;0.50;;;0.30;;
38037;SDS011;23843;51.320;12.340;2023-03-31T17:00:15;0.30;;;0.30;;
38037;SDS011;23843;51.320;12.340;2023-03-31T17:02:41;0.83;;;0.40;;
38037;SDS011;23843;51.320;12.340;2023-03-31T17:05:07;0.80;;;0.50;;
38037;SDS011;23843;51.320;12.340;2023-03-31T17:07:33;0.47;;;0.40;;
38037;SDS011;23843;51.320;12.340;2023-03-31T17:09:58;0.87;;;0.70;;
38037;SDS011;23843;51.320;12.340;2023-03-31T17:12:24;0.87;;;0.60;;
38037;SDS011;23843;51.320;12.340;2023-03-31T17:14:50;0.67;;;0.60;;
38037;SDS011;23843;51.320;12.340;2023-03-31T17:17:19;0.67;;;0.63;;
38037;SDS011;23843;51.320;12.340;2023-03-31T17:19:44;1.00;;;0.70;;
38037;SDS011;23843;51.320;12.340;2023-03-31T17:22:10;0.43;;;0.40;;
38037;SDS011;23843;51.320;12.340;2023-03-31T17:24:36;0.30;;;0.30;;
38037;SDS011;23843;51.320;12.340;2023-03-31T17:27:01;0.30;;;0.30;;
38037;SDS011;23843;51.320;12.340;2023-03-31T17:29:27;0.40;;;0.40;;
38037;SDS011;23843;51.320;12.340;2023-03-31T17:31:52;0.43;;;0.30;;
38037;SDS011;23843;51.320;12.340;2023-03-31T17:34:19;0.20;;;0.20;;
38037;SDS011;23843;51.320;12.340;2023-03-31T17:36:45;0.23;;;0.20;;
38037;SDS011;23843;51.320;12.340;2023-03-31T17:39:12;0.20;;;0.20;;
38037;SDS011;23843;51.320;12.340;2023-03-31T17:41:43;0.20;;;0.20;;
38037;SDS011;23843;51.320;12.340;2023-03-31T17:44:08;0.57;;;0.57;;
38037;SDS011;23843;51.320;12.340;2023-03-31T17:46:36;0.13;;;0.13;;
38037;SDS011;23843;51.320;12.340;2023-03-31T17:49:02;0.30;;;0.30;;
38037;SDS011;23843;51.320;12.340;2023-03-31T17:51:29;0.30;;;0.30;;
38037;SDS011;23843;51.320;12.340;2023-03-31T17:53:54;0.30;;;0.30;;
38037;SDS011;23843;51.320;12.340;2023-03-31T17:56:24;0.37;;;0.23;;
38037;SDS011;23843;51.320;12.340;2023-03-31T17:58:50;0.30;;;0.20;;
38037;SDS011;23843;51.320;12.340;2023-03-31T18:01:18;0.30;;;0.30;;
38037;SDS011;23843;51.320;12.340;2023-03-31T18:03:45;0.30;;;0.30;;
38037;SDS011;23843;51.320;12.340;2023-03-31T18:06:13;0.33;;;0.30;;
38037;SDS011;23843;51.320;12.340;2023-03-31T18:08:43;0.30;;;0.30;;
38037;SDS011;23843;51.320;12.340;2023-03-31T18:11:09;0.53;;;0.40;;
38037;SDS011;23843;51.320;12.340;2023-03-31T18:13:37;0.30;;;0.30;;
38037;SDS011;23843;51.320;12.340;2023-03-31T18:16:04;0.30;;;0.30;;
38037;SDS011;23843;51.320;12.340;2023-03-31T18:18:31;0.50;;;0.40;;
38037;SDS011;23843;51.320;12.340;2023-03-31T18:20:56;0.83;;;0.50;;
38037;SDS011;23843;51.320;12.340;2023-03-31T18:23:26;0.80;;;0.57;;
38037;SDS011;23843;51.320;12.340;2023-03-31T18:25:53;1.00;;;0.73;;
38037;SDS011;23843;51.320;12.340;2023-03-31T18:28:18;0.67;;;0.60;;
38037;SDS011;23843;51.320;12.340;2023-03-31T18:30:49;0.50;;;0.40;;
38037;SDS011;23843;51.320;12.340;2023-03-31T18:33:15;0.30;;;0.30;;
38037;SDS011;23843;51.320;12.340;2023-03-31T18:35:40;0.50;;;0.40;;
38037;SDS011;23843;51.320;12.340;2023-03-31T18:38:06;0.60;;;0.50;;
38037;SDS011;23843;51.320;12.340;2023-03-31T18:40:31;0.50;;;0.50;;
38037;SDS011;23843;51.320;12.340;2023-03-31T18:42:59;0.30;;;0.30;;
38037;SDS011;23843;51.320;12.340;2023-03-31T18:45:25;0.30;;;0.30;;
38037;SDS011;23843;51.320;12.340;2023-03-31T18:47:51;0.33;;;0.30;;
38037;SDS011;23843;51.320;12.340;2023-03-31T18:50:16;0.93;;;0.37;;
38037;SDS011;23843;51.320;12.340;2023-03-31T18:52:42;0.30;;;0.27;;
38037;SDS011;23843;51.320;12.340;2023-03-31T18:55:08;0.60;;;0.40;;
38037;SDS011;23843;51.320;12.340;2023-03-31T18:57:34;0.40;;;0.40;;
38037;SDS011;23843;51.320;12.340;2023-03-31T19:00:01;0.20;;;0.20;;
38037;SDS011;23843;51.320;12.340;2023-03-31T19:02:26;0.30;;;0.30;;
38037;SDS011;23843;51.320;12.340;2023-03-31T19:04:52;0.30;;;0.30;;
38037;SDS011;23843;51.320;12.340;2023-03-31T19:07:18;0.30;;;0.30;;
38037;SDS011;23843;51.320;12.340;2023-03-31T19:13:11;0.43;;;0.43;;
38037;SDS011;23843;51.320;12.340;2023-03-31T20:29:30;0.57;;;0.50;;
